Time;durP1;ratioP1;P1;durP2;ratioP2;P2;SDS_P1;SDS_P2;PMS_P1;PMS_P2;Temp;Humidity;BMP_temperature;BMP_pressure;BME280_temperature;BME280_humidity;BME280_pressure;Samples;Min_cycle;Max_cycle;Signal;HPM_P1;HPM_P2
2022/06/06 00:00:29;;;;;;;5.22;3.08;;;;;;;;;;5111396;27;20393;-66
2022/06/06 00:03:21;;;;;;;5.68;3.35;;;;;;;;;;5110968;27;20397;-66
2022/06/06 00:05:49;;;;;;;8.88;3.58;;;;;;;;;;5111418;28;20030;-66
2022/06/06 00:08:49;;;;;;;8.20;3.60;;;;;;;;;;5111672;27;20389;-66
2022/06/06 00:11:16;;;;;;;9.23;3.60;;;;;;;;;;5111041;28;20028;-66
2022/06/06 00:13:43;;;;;;;9.55;3.60;;;;;;;;;;5111220;28;20024;-66
2022/06/06 00:16:10;;;;;;;8.88;3.75;;;;;;;;;;5111370;28;20043;-66
2022/06/06 00:18:36;;;;;;;8.63;4.00;;;;;;;;;;5110668;28;20065;-66
2022/06/06 00:21:03;;;;;;;6.30;3.22;;;;;;;;;;5111071;28;20019;-66
2022/06/06 00:23:29;;;;;;;6.13;3.58;;;;;;;;;;5111004;28;20072;-66
2022/06/06 00:25:57;;;;;;;5.05;2.70;;;;;;;;;;5110685;28;20024;-66
2022/06/06 00:28:23;;;;;;;7.28;3.42;;;;;;;;;;5111166;28;20039;-66
2022/06/06 00:30:55;;;;;;;6.72;3.63;;;;;;;;;;5109630;28;20076;-66
2022/06/06 00:36:06;;;;;;;9.63;3.35;;;;;;;;;;5110762;28;20038;-66
2022/06/06 00:38:32;;;;;;;6.47;3.55;;;;;;;;;;5110570;28;20042;-67
2022/06/06 00:40:59;;;;;;;6.00;3.35;;;;;;;;;;5110749;28;20028;-68
2022/06/06 00:43:25;;;;;;;6.57;4.20;;;;;;;;;;5110678;28;20023;-66
2022/06/06 00:45:54;;;;;;;8.13;3.38;;;;;;;;;;5110248;28;20031;-68
2022/06/06 00:49:15;;;;;;;7.05;4.20;;;;;;;;;;5112020;27;20426;-65
2022/06/06 00:52:39;;;;;;;7.90;3.75;;;;;;;;;;5111483;27;20426;-66
2022/06/06 00:55:09;;;;;;;8.02;4.35;;;;;;;;;;5111274;28;20028;-66
2022/06/06 00:57:38;;;;;;;6.30;3.83;;;;;;;;;;5111535;28;20022;-66
2022/06/06 01:00:11;;;;;;;6.20;3.47;;;;;;;;;;5110827;28;20050;-66
2022/06/06 01:02:40;;;;;;;6.72;3.88;;;;;;;;;;5111501;28;20533;-66
2022/06/06 01:05:06;;;;;;;6.00;3.75;;;;;;;;;;5111376;28;20031;-66
2022/06/06 01:09:16;;;;;;;7.68;3.78;;;;;;;;;;5111589;27;20381;-66
2022/06/06 01:11:47;;;;;;;9.15;3.92;;;;;;;;;;5111426;28;20077;-67
2022/06/06 01:17:04;;;;;;;8.85;4.32;;;;;;;;;;5111989;27;20466;-66
2022/06/06 01:19:44;;;;;;;7.95;3.78;;;;;;;;;;5111521;28;20027;-65
2022/06/06 01:23:25;;;;;;;6.97;4.10;;;;;;;;;;5111853;27;20985;-66
2022/06/06 01:26:09;;;;;;;7.47;4.07;;;;;;;;;;5111566;28;20030;-65
2022/06/06 01:29:28;;;;;;;7.68;4.60;;;;;;;;;;5111043;27;20988;-66
2022/06/06 01:32:14;;;;;;;8.63;4.53;;;;;;;;;;5111948;27;20462;-67
2022/06/06 01:34:42;;;;;;;7.05;3.90;;;;;;;;;;5111161;28;20024;-68
2022/06/06 01:38:43;;;;;;;8.35;4.18;;;;;;;;;;5112023;27;20901;-65
2022/06/06 01:41:11;;;;;;;9.90;5.00;;;;;;;;;;5109893;28;20404;-66
2022/06/06 01:43:41;;;;;;;8.32;4.45;;;;;;;;;;5110914;28;20023;-67
2022/06/06 01:46:13;;;;;;;8.02;4.07;;;;;;;;;;5111221;28;20054;-66
2022/06/06 01:48:41;;;;;;;6.97;4.07;;;;;;;;;;5110937;28;20044;-65
2022/06/06 01:51:11;;;;;;;9.95;4.53;;;;;;;;;;5111065;28;20032;-67
2022/06/06 01:54:21;;;;;;;7.40;4.18;;;;;;;;;;5111489;27;20418;-67
2022/06/06 01:56:47;;;;;;;10.82;5.75;;;;;;;;;;5110807;28;20114;-66
2022/06/06 01:59:13;;;;;;;10.93;5.50;;;;;;;;;;5111387;28;20024;-66
2022/06/06 02:01:39;;;;;;;12.63;5.72;;;;;;;;;;5111193;28;20545;-66
2022/06/06 02:04:06;;;;;;;11.63;4.10;;;;;;;;;;5110885;28;20032;-66
2022/06/06 02:06:32;;;;;;;10.02;4.35;;;;;;;;;;5111029;28;20020;-66
2022/06/06 02:10:36;;;;;;;7.82;4.60;;;;;;;;;;5111411;27;20388;-66
2022/06/06 02:13:02;;;;;;;9.10;5.28;;;;;;;;;;5127007;28;20027;-66
2022/06/06 02:15:28;;;;;;;12.75;4.70;;;;;;;;;;5126924;28;20028;-68
2022/06/06 02:17:55;;;;;;;7.75;4.40;;;;;;;;;;5110990;28;20023;-66
2022/06/06 02:21:40;;;;;;;9.85;4.72;;;;;;;;;;5111401;27;20423;-66
2022/06/06 02:24:06;;;;;;;7.43;4.60;;;;;;;;;;5109533;28;20037;-66
2022/06/06 02:26:33;;;;;;;8.20;4.65;;;;;;;;;;5111207;28;20035;-67
2022/06/06 02:28:59;;;;;;;11.40;5.10;;;;;;;;;;5111068;28;20035;-66
2022/06/06 02:32:11;;;;;;;9.43;4.43;;;;;;;;;;5111210;27;20789;-65
2022/06/06 02:34:51;;;;;;;9.70;4.90;;;;;;;;;;5111868;27;20385;-66
2022/06/06 02:37:17;;;;;;;7.88;3.97;;;;;;;;;;5111171;28;20032;-66
2022/06/06 02:39:44;;;;;;;8.93;4.20;;;;;;;;;;5110748;28;20042;-66
2022/06/06 02:44:17;;;;;;;12.25;5.28;;;;;;;;;;5111977;27;20426;-67
2022/06/06 02:46:43;;;;;;;12.75;4.97;;;;;;;;;;5110952;28;20026;-65
2022/06/06 02:49:09;;;;;;;12.98;4.95;;;;;;;;;;5111213;28;20030;-65
2022/06/06 02:51:36;;;;;;;8.35;4.72;;;;;;;;;;5111226;28;20073;-66
2022/06/06 02:54:02;;;;;;;14.07;5.30;;;;;;;;;;5110757;28;20024;-66
2022/06/06 02:57:10;;;;;;;18.83;4.90;;;;;;;;;;5111673;27;20409;-66
2022/06/06 02:59:57;;;;;;;7.85;4.93;;;;;;;;;;5111289;27;20406;-66
2022/06/06 03:06:48;;;;;;;8.57;5.13;;;;;;;;;;5111159;27;20422;-66
2022/06/06 03:09:17;;;;;;;10.48;4.28;;;;;;;;;;5109929;28;20027;-65
2022/06/06 03:12:02;;;;;;;6.88;4.38;;;;;;;;;;5111184;28;20431;-66
2022/06/06 03:15:27;;;;;;;9.82;4.90;;;;;;;;;;5152503;27;20547;-66
2022/06/06 03:22:25;;;;;;;11.18;4.88;;;;;;;;;;5110939;27;20393;-66
2022/06/06 03:25:01;;;;;;;10.15;4.82;;;;;;;;;;5111426;28;20073;-66
2022/06/06 03:27:36;;;;;;;11.20;6.05;;;;;;;;;;5110981;28;20042;-66
2022/06/06 03:30:05;;;;;;;7.88;5.30;;;;;;;;;;5111361;28;20044;-67
2022/06/06 03:33:07;;;;;;;10.85;5.15;;;;;;;;;;5111643;27;20389;-68
2022/06/06 03:35:33;;;;;;;8.15;5.07;;;;;;;;;;5110977;28;20020;-66
2022/06/06 03:38:17;;;;;;;8.63;5.18;;;;;;;;;;5111504;28;20024;-65
2022/06/06 03:40:55;;;;;;;8.07;4.70;;;;;;;;;;5111190;28;20069;-68
2022/06/06 03:43:29;;;;;;;8.32;4.53;;;;;;;;;;5111425;27;20414;-66
2022/06/06 03:46:14;;;;;;;9.40;5.07;;;;;;;;;;5111291;28;20016;-65
2022/06/06 03:48:52;;;;;;;11.20;5.82;;;;;;;;;;5110792;28;20032;-66
2022/06/06 03:52:47;;;;;;;9.68;4.85;;;;;;;;;;5111798;27;20423;-66
2022/06/06 03:55:16;;;;;;;10.30;5.70;;;;;;;;;;5109953;28;20035;-66
2022/06/06 03:58:03;;;;;;;9.90;5.10;;;;;;;;;;5111416;27;20415;-66
2022/06/06 04:00:30;;;;;;;9.60;5.57;;;;;;;;;;5111384;28;20125;-66
2022/06/06 04:05:45;;;;;;;8.35;6.28;;;;;;;;;;5111713;27;20396;-66
2022/06/06 04:08:11;;;;;;;10.43;5.90;;;;;;;;;;5111333;28;20103;-67
2022/06/06 04:11:26;;;;;;;11.50;5.90;;;;;;;;;;5111205;27;20402;-66
2022/06/06 04:13:55;;;;;;;10.48;5.80;;;;;;;;;;5111545;28;20024;-66
2022/06/06 04:16:30;;;;;;;9.60;5.43;;;;;;;;;;5111016;28;20027;-66
2022/06/06 04:18:56;;;;;;;9.75;5.93;;;;;;;;;;5111209;28;20032;-66
2022/06/06 04:21:55;;;;;;;11.77;6.25;;;;;;;;;;5111072;28;20016;-66
2022/06/06 04:24:39;;;;;;;7.45;4.65;;;;;;;;;;5076907;28;20089;-65
2022/06/06 04:27:24;;;;;;;8.07;4.55;;;;;;;;;;5111012;28;20058;-64
2022/06/06 04:30:01;;;;;;;11.48;5.25;;;;;;;;;;5110833;28;20032;-66
2022/06/06 04:32:42;;;;;;;10.45;5.28;;;;;;;;;;5110433;28;20040;-66
2022/06/06 04:35:29;;;;;;;10.38;5.13;;;;;;;;;;5109605;28;20023;-66
2022/06/06 04:38:04;;;;;;;10.50;5.30;;;;;;;;;;5110351;28;20044;-67
2022/06/06 04:40:51;;;;;;;10.35;5.32;;;;;;;;;;5110793;28;20020;-67
2022/06/06 04:43:17;;;;;;;11.43;5.22;;;;;;;;;;5110655;28;20437;-67
2022/06/06 04:45:58;;;;;;;14.30;4.65;;;;;;;;;;5110316;28;20034;-66
2022/06/06 04:48:40;;;;;;;9.15;4.97;;;;;;;;;;5111626;27;20397;-68
2022/06/06 04:51:07;;;;;;;7.93;5.10;;;;;;;;;;5111285;28;20415;-69
2022/06/06 04:53:37;;;;;;;8.98;4.88;;;;;;;;;;5109473;28;20020;-68
2022/06/06 04:56:04;;;;;;;8.77;4.53;;;;;;;;;;5111461;28;20104;-68
2022/06/06 04:58:32;;;;;;;7.50;4.40;;;;;;;;;;5111137;28;20077;-68
2022/06/06 05:00:58;;;;;;;9.68;4.50;;;;;;;;;;5111171;28;20464;-68
2022/06/06 05:03:25;;;;;;;10.80;4.95;;;;;;;;;;5110333;28;20063;-68
2022/06/06 05:07:32;;;;;;;8.05;4.80;;;;;;;;;;5102475;27;21374;-66
2022/06/06 05:09:58;;;;;;;7.28;4.15;;;;;;;;;;5115374;28;20051;-66
2022/06/06 05:12:30;;;;;;;11.38;4.90;;;;;;;;;;5109799;28;20024;-66
2022/06/06 05:15:20;;;;;;;20.77;13.35;;;;;;;;;;5110223;28;20024;-67
2022/06/06 05:21:14;;;;;;;10.10;5.50;;;;;;;;;;5128367;27;20399;-67
2022/06/06 05:25:41;;;;;;;11.48;4.32;;;;;;;;;;5109324;27;20473;-65
2022/06/06 05:28:15;;;;;;;9.38;4.22;;;;;;;;;;5108711;28;20032;-66
2022/06/06 05:32:45;;;;;;;49.75;14.43;;;;;;;;;;5107164;27;20441;-65
2022/06/06 05:35:34;;;;;;;11.18;4.97;;;;;;;;;;5105047;27;20035;-65
2022/06/06 05:39:46;;;;;;;9.50;4.70;;;;;;;;;;5106260;27;20426;-66
2022/06/06 05:42:14;;;;;;;8.68;3.90;;;;;;;;;;5106570;28;20020;-65
2022/06/06 05:44:50;;;;;;;7.93;4.07;;;;;;;;;;5108039;28;20055;-65
2022/06/06 05:47:41;;;;;;;10.15;3.85;;;;;;;;;;5106639;28;20096;-66
2022/06/06 05:50:15;;;;;;;8.75;3.75;;;;;;;;;;5106301;28;20103;-66
2022/06/06 05:52:41;;;;;;;8.50;3.92;;;;;;;;;;5105844;28;20016;-66
2022/06/06 05:55:25;;;;;;;8.88;4.40;;;;;;;;;;5109237;28;20654;-65
2022/06/06 05:57:51;;;;;;;8.80;4.00;;;;;;;;;;5103893;28;20123;-64
2022/06/06 06:00:36;;;;;;;9.50;4.10;;;;;;;;;;5106155;28;20024;-65
2022/06/06 06:03:26;;;;;;;11.73;4.40;;;;;;;;;;5066137;28;20472;-64
2022/06/06 06:06:59;;;;;;;10.45;4.65;;;;;;;;;;5108618;27;20430;-63
2022/06/06 06:10:22;;;;;;;11.73;4.97;;;;;;;;;;5103439;27;20404;-64
2022/06/06 06:15:22;;;;;;;11.07;4.55;;;;;;;;;;5086849;27;21134;-65
2022/06/06 06:18:30;;;;;;;10.57;4.60;;;;;;;;;;5053474;27;20455;-64
2022/06/06 06:21:05;;;;;;;11.50;4.90;;;;;;;;;;5040075;28;20029;-64
2022/06/06 06:23:34;;;;;;;13.00;4.95;;;;;;;;;;5040263;28;20034;-64
2022/06/06 06:26:07;;;;;;;10.02;4.45;;;;;;;;;;5026979;28;20490;-64
2022/06/06 06:28:34;;;;;;;10.32;5.50;;;;;;;;;;5027284;28;20034;-64
2022/06/06 06:31:26;;;;;;;8.50;4.82;;;;;;;;;;5045603;28;20033;-67
2022/06/06 06:34:01;;;;;;;10.80;5.10;;;;;;;;;;5043374;28;20036;-66
2022/06/06 06:36:33;;;;;;;7.78;4.65;;;;;;;;;;5043520;28;20033;-65
2022/06/06 06:39:18;;;;;;;11.23;5.55;;;;;;;;;;5040527;28;20041;-66
2022/06/06 06:42:03;;;;;;;9.27;4.43;;;;;;;;;;5036943;28;20032;-64
2022/06/06 06:44:33;;;;;;;10.98;4.93;;;;;;;;;;5038938;28;20104;-64
2022/06/06 06:47:04;;;;;;;11.80;5.05;;;;;;;;;;5042384;28;20033;-65
2022/06/06 06:50:55;;;;;;;11.00;4.57;;;;;;;;;;5066024;28;20387;-64
2022/06/06 06:53:30;;;;;;;7.70;4.22;;;;;;;;;;5062582;28;20048;-64
2022/06/06 06:56:04;;;;;;;7.68;4.22;;;;;;;;;;5068775;28;20380;-63
2022/06/06 07:01:38;;;;;;;10.48;5.50;;;;;;;;;;5108072;27;20466;-64
2022/06/06 07:09:57;;;;;;;8.85;4.38;;;;;;;;;;5108755;28;20161;-64
2022/06/06 07:12:59;;;;;;;7.72;3.80;;;;;;;;;;5108624;28;20015;-65
2022/06/06 07:15:31;;;;;;;6.95;3.65;;;;;;;;;;5083615;28;20070;-66
2022/06/06 07:17:59;;;;;;;10.30;4.15;;;;;;;;;;5093726;28;20045;-65
2022/06/06 07:20:26;;;;;;;9.02;4.35;;;;;;;;;;5097247;28;20454;-64
2022/06/06 07:23:02;;;;;;;10.90;4.40;;;;;;;;;;5097472;28;20028;-65
2022/06/06 07:25:30;;;;;;;11.57;4.43;;;;;;;;;;5096723;28;20529;-65
2022/06/06 07:27:56;;;;;;;9.35;4.70;;;;;;;;;;5104846;28;20028;-66
2022/06/06 07:30:23;;;;;;;8.40;4.38;;;;;;;;;;5106557;28;20138;-65
2022/06/06 07:32:49;;;;;;;8.50;3.90;;;;;;;;;;5107382;28;20020;-65
2022/06/06 07:35:15;;;;;;;10.40;3.60;;;;;;;;;;5104398;28;20107;-66
2022/06/06 07:38:00;;;;;;;8.38;4.38;;;;;;;;;;5106313;28;20054;-65
2022/06/06 07:40:44;;;;;;;7.10;3.42;;;;;;;;;;5108363;28;20095;-65
2022/06/06 07:43:10;;;;;;;10.45;4.35;;;;;;;;;;5107455;28;20036;-65
2022/06/06 07:45:44;;;;;;;8.60;3.60;;;;;;;;;;5109399;28;20027;-65
2022/06/06 07:48:29;;;;;;;7.18;4.15;;;;;;;;;;5104456;28;20084;-65
2022/06/06 07:50:58;;;;;;;8.88;3.35;;;;;;;;;;5093532;28;20362;-65
2022/06/06 07:53:51;;;;;;;8.20;2.90;;;;;;;;;;5100673;28;20028;-65
2022/06/06 07:56:23;;;;;;;6.40;2.60;;;;;;;;;;5096535;28;20091;-65
2022/06/06 07:58:55;;;;;;;7.80;2.92;;;;;;;;;;5095142;28;20673;-65
2022/06/06 08:01:22;;;;;;;7.93;3.13;;;;;;;;;;5087672;28;20082;-66
2022/06/06 08:03:54;;;;;;;6.20;2.45;;;;;;;;;;5101467;28;20081;-64
2022/06/06 08:06:45;;;;;;;8.30;3.03;;;;;;;;;;5056285;28;20939;-65
2022/06/06 08:09:11;;;;;;;11.02;3.05;;;;;;;;;;5054405;28;20021;-65
2022/06/06 08:12:25;;;;;;;8.63;3.72;;;;;;;;;;5098754;27;20769;-65
2022/06/06 08:15:07;;;;;;;7.60;3.30;;;;;;;;;;5084524;28;20058;-67
2022/06/06 08:17:33;;;;;;;8.63;3.15;;;;;;;;;;5083487;28;20020;-66
2022/06/06 08:21:37;;;;;;;7.43;2.92;;;;;;;;;;5105190;27;20484;-65
2022/06/06 08:24:06;;;;;;;6.03;3.05;;;;;;;;;;5082039;28;20353;-64
2022/06/06 08:26:35;;;;;;;6.90;3.20;;;;;;;;;;5081954;28;20055;-63
2022/06/06 08:29:02;;;;;;;6.53;3.17;;;;;;;;;;5076722;28;20717;-63
2022/06/06 08:31:28;;;;;;;8.23;2.97;;;;;;;;;;5081425;28;20028;-66
2022/06/06 08:33:55;;;;;;;8.48;3.22;;;;;;;;;;5079381;28;20480;-64
2022/06/06 08:36:24;;;;;;;8.68;3.13;;;;;;;;;;5080244;28;20104;-65
2022/06/06 08:38:50;;;;;;;11.82;3.97;;;;;;;;;;5078323;28;20025;-64
2022/06/06 08:41:28;;;;;;;8.82;3.53;;;;;;;;;;5085570;28;20040;-64
2022/06/06 08:44:00;;;;;;;9.90;3.45;;;;;;;;;;5081536;28;20029;-64
2022/06/06 08:46:40;;;;;;;7.07;3.33;;;;;;;;;;5078608;28;20032;-63
2022/06/06 08:52:25;;;;;;;7.65;3.13;;;;;;;;;;5105258;28;20043;-65
2022/06/06 08:54:57;;;;;;;11.45;3.90;;;;;;;;;;5104266;28;20084;-65
2022/06/06 08:57:46;;;;;;;8.43;3.72;;;;;;;;;;5101623;28;20059;-66
2022/06/06 09:00:18;;;;;;;7.85;3.20;;;;;;;;;;5104771;28;20051;-66
2022/06/06 09:02:54;;;;;;;10.43;3.05;;;;;;;;;;5104658;28;20113;-65
2022/06/06 09:05:26;;;;;;;4.53;2.67;;;;;;;;;;5103404;28;20126;-64
2022/06/06 09:07:52;;;;;;;;;;;;;;;;;;5081700;28;20059;-66
2022/06/06 09:10:18;;;;;;;7.70;2.30;;;;;;;;;;5082756;28;19947;-65
2022/06/06 09:13:11;;;;;;;6.00;2.97;;;;;;;;;;5085079;28;20077;-64
2022/06/06 09:16:10;;;;;;;7.53;2.75;;;;;;;;;;5086284;28;20024;-65
2022/06/06 09:18:37;;;;;;;7.95;3.38;;;;;;;;;;5050626;28;20639;-64
2022/06/06 09:21:18;;;;;;;6.85;2.60;;;;;;;;;;5085510;28;20062;-63
2022/06/06 09:24:08;;;;;;;9.10;2.90;;;;;;;;;;5086134;28;20382;-66
2022/06/06 09:26:45;;;;;;;6.65;2.00;;;;;;;;;;5078338;28;20040;-66
2022/06/06 09:29:14;;;;;;;10.13;2.97;;;;;;;;;;5087126;28;20027;-65
2022/06/06 09:32:00;;;;;;;13.88;2.97;;;;;;;;;;5079586;28;20028;-64
2022/06/06 09:34:32;;;;;;;5.05;2.13;;;;;;;;;;5073393;28;20067;-66
2022/06/06 09:37:06;;;;;;;7.05;2.58;;;;;;;;;;5066486;28;20383;-66
2022/06/06 09:39:36;;;;;;;7.35;2.70;;;;;;;;;;5071784;28;20051;-66
2022/06/06 09:42:05;;;;;;;9.25;4.07;;;;;;;;;;5071239;28;20037;-63
2022/06/06 09:44:48;;;;;;;12.43;3.13;;;;;;;;;;5072367;28;20024;-63
2022/06/06 09:47:20;;;;;;;7.25;2.60;;;;;;;;;;5061200;28;20064;-64
2022/06/06 09:49:47;;;;;;;;;;;;;;;;;;5071371;28;20579;-64
2022/06/06 09:52:27;;;;;;;7.40;2.38;;;;;;;;;;5070874;28;19948;-64
2022/06/06 10:00:57;;;;;;;5.05;2.03;;;;;;;;;;5071534;28;20051;-66
2022/06/06 10:03:23;;;;;;;10.38;2.53;;;;;;;;;;5072126;28;20017;-67
2022/06/06 10:05:58;;;;;;;14.13;3.45;;;;;;;;;;5073046;28;20037;-67
2022/06/06 10:08:27;;;;;;;6.38;2.33;;;;;;;;;;5072198;28;20025;-66
2022/06/06 10:11:00;;;;;;;9.70;2.42;;;;;;;;;;5071729;28;20024;-67
2022/06/06 10:13:42;;;;;;;7.95;2.30;;;;;;;;;;5069388;28;20032;-67
2022/06/06 10:16:20;;;;;;;9.75;2.47;;;;;;;;;;5071306;28;20017;-67
2022/06/06 10:19:05;;;;;;;9.52;3.63;;;;;;;;;;5070296;28;20138;-66
2022/06/06 10:21:37;;;;;;;8.73;2.35;;;;;;;;;;5068706;28;20155;-66
2022/06/06 10:24:03;;;;;;;8.85;2.60;;;;;;;;;;5068827;28;20047;-65
2022/06/06 10:26:32;;;;;;;5.80;2.33;;;;;;;;;;5069852;28;20060;-66
2022/06/06 10:29:05;;;;;;;7.80;2.60;;;;;;;;;;5069860;28;20017;-66
2022/06/06 10:31:37;;;;;;;9.25;2.40;;;;;;;;;;5068325;28;20414;-64
2022/06/06 10:34:39;;;;;;;10.05;2.78;;;;;;;;;;5068507;28;20036;-67
2022/06/06 10:37:23;;;;;;;5.93;1.90;;;;;;;;;;4986857;28;20414;-65
2022/06/06 10:39:49;;;;;;;8.40;2.92;;;;;;;;;;5044561;28;20071;-66
2022/06/06 10:42:16;;;;;;;13.38;2.75;;;;;;;;;;5048824;28;20057;-66
2022/06/06 10:44:42;;;;;;;9.27;2.58;;;;;;;;;;5048656;28;20021;-65
2022/06/06 10:47:15;;;;;;;8.43;2.72;;;;;;;;;;5051106;28;20100;-65
2022/06/06 10:49:56;;;;;;;9.02;2.38;;;;;;;;;;5053327;28;20021;-66
2022/06/06 10:52:41;;;;;;;8.32;2.38;;;;;;;;;;5064892;28;20012;-65
2022/06/06 10:55:23;;;;;;;10.68;2.42;;;;;;;;;;5073907;28;20066;-65
2022/06/06 10:58:08;;;;;;;8.63;2.33;;;;;;;;;;5073513;28;20046;-66
2022/06/06 11:00:34;;;;;;;6.82;2.33;;;;;;;;;;5074601;28;20078;-65
2022/06/06 11:03:18;;;;;;;9.38;2.67;;;;;;;;;;5073562;28;20074;-66
2022/06/06 11:05:53;;;;;;;10.73;2.47;;;;;;;;;;5069441;28;20032;-66
2022/06/06 11:08:25;;;;;;;9.80;2.90;;;;;;;;;;5073613;28;20020;-65
2022/06/06 11:11:01;;;;;;;7.78;2.10;;;;;;;;;;5074079;28;20078;-65
2022/06/06 11:13:46;;;;;;;12.82;3.22;;;;;;;;;;5073421;28;20032;-65
2022/06/06 11:16:30;;;;;;;8.90;2.80;;;;;;;;;;5074063;28;20177;-65
2022/06/06 11:19:14;;;;;;;5.95;2.30;;;;;;;;;;5073174;28;20028;-65
2022/06/06 11:21:55;;;;;;;8.02;2.80;;;;;;;;;;5088642;28;20374;-65
2022/06/06 11:24:36;;;;;;;9.02;2.38;;;;;;;;;;5073745;28;20077;-65
2022/06/06 11:27:13;;;;;;;6.88;2.15;;;;;;;;;;5071828;28;20028;-65
2022/06/06 11:29:45;;;;;;;8.00;2.45;;;;;;;;;;5073393;28;20031;-66
2022/06/06 11:32:11;;;;;;;7.43;2.30;;;;;;;;;;5072809;28;20031;-65
2022/06/06 11:35:13;;;;;;;10.23;2.35;;;;;;;;;;5073196;28;20065;-65
2022/06/06 11:37:39;;;;;;;10.97;2.53;;;;;;;;;;5031151;28;20422;-65
2022/06/06 11:40:24;;;;;;;7.00;2.55;;;;;;;;;;5064420;28;20293;-67
2022/06/06 11:42:50;;;;;;;7.53;2.30;;;;;;;;;;5072240;28;20034;-66
2022/06/06 11:45:35;;;;;;;7.78;2.47;;;;;;;;;;5070588;28;20021;-66
2022/06/06 11:48:01;;;;;;;6.57;2.35;;;;;;;;;;5069318;28;20023;-66
2022/06/06 11:50:46;;;;;;;9.93;2.92;;;;;;;;;;5069738;28;20086;-66
2022/06/06 11:53:31;;;;;;;9.05;2.28;;;;;;;;;;5068848;28;20032;-65
2022/06/06 11:56:16;;;;;;;12.43;2.63;;;;;;;;;;5083829;28;20424;-65
2022/06/06 11:58:45;;;;;;;8.45;2.53;;;;;;;;;;5071919;28;20103;-66
2022/06/06 12:01:17;;;;;;;6.55;2.00;;;;;;;;;;5071657;28;20081;-65
2022/06/06 12:04:06;;;;;;;9.75;2.53;;;;;;;;;;5071110;28;20027;-65
2022/06/06 12:07:03;;;;;;;7.50;2.15;;;;;;;;;;5071806;28;20024;-65
2022/06/06 12:09:29;;;;;;;7.35;3.15;;;;;;;;;;5071175;28;20077;-65
2022/06/06 12:11:55;;;;;;;9.27;2.00;;;;;;;;;;5071915;28;20104;-65
2022/06/06 12:14:36;;;;;;;11.35;2.72;;;;;;;;;;5072955;28;20413;-64
2022/06/06 12:17:12;;;;;;;6.03;1.85;;;;;;;;;;5072045;28;20024;-65
2022/06/06 12:22:51;;;;;;;7.68;1.90;;;;;;;;;;5055116;28;20185;-65
2022/06/06 12:25:17;;;;;;;9.40;1.85;;;;;;;;;;5072596;28;20027;-66
2022/06/06 12:27:53;;;;;;;8.38;2.20;;;;;;;;;;5071125;28;20021;-65
2022/06/06 12:30:24;;;;;;;11.55;2.92;;;;;;;;;;5070569;28;20039;-65
2022/06/06 12:32:58;;;;;;;11.15;2.25;;;;;;;;;;5072360;28;20021;-66
2022/06/06 12:35:25;;;;;;;6.55;2.17;;;;;;;;;;5072541;28;20088;-65
2022/06/06 12:38:05;;;;;;;7.28;2.47;;;;;;;;;;5071830;28;20020;-64
2022/06/06 12:40:51;;;;;;;12.80;3.13;;;;;;;;;;5072324;28;20035;-65
2022/06/06 12:43:36;;;;;;;8.63;2.40;;;;;;;;;;5071954;28;20485;-65
2022/06/06 12:46:11;;;;;;;6.28;2.10;;;;;;;;;;5070841;28;20036;-64
2022/06/06 12:48:56;;;;;;;14.80;3.00;;;;;;;;;;5072022;28;20066;-65
2022/06/06 12:51:41;;;;;;;10.63;2.85;;;;;;;;;;5067963;28;20036;-65
2022/06/06 12:54:10;;;;;;;7.82;3.05;;;;;;;;;;5067840;28;20099;-66
2022/06/06 12:56:56;;;;;;;8.20;2.85;;;;;;;;;;5067952;28;20114;-66
2022/06/06 12:59:22;;;;;;;10.43;2.55;;;;;;;;;;5068034;28;20151;-66
2022/06/06 13:02:01;;;;;;;7.75;2.53;;;;;;;;;;5067998;28;20032;-66
2022/06/06 13:04:45;;;;;;;7.38;2.50;;;;;;;;;;5068942;28;20099;-67
2022/06/06 13:07:17;;;;;;;9.77;3.03;;;;;;;;;;5074668;28;20036;-66
2022/06/06 13:09:46;;;;;;;12.07;3.80;;;;;;;;;;5076431;28;20036;-66
2022/06/06 13:12:28;;;;;;;7.85;3.38;;;;;;;;;;5076008;28;20036;-67
2022/06/06 13:14:57;;;;;;;13.98;2.90;;;;;;;;;;5075048;28;20473;-66
2022/06/06 13:17:23;;;;;;;14.80;3.42;;;;;;;;;;5076220;28;20031;-66
2022/06/06 13:20:00;;;;;;;13.27;3.08;;;;;;;;;;5075734;28;20028;-66
2022/06/06 13:22:26;;;;;;;10.80;2.55;;;;;;;;;;5075935;28;20590;-66
2022/06/06 13:25:15;;;;;;;15.13;2.85;;;;;;;;;;5076143;28;20069;-66
2022/06/06 13:27:59;;;;;;;9.38;2.20;;;;;;;;;;5074781;28;20025;-66
2022/06/06 13:30:28;;;;;;;7.18;2.13;;;;;;;;;;5076047;28;20389;-66
2022/06/06 13:33:17;;;;;;;12.18;2.95;;;;;;;;;;5075514;28;20024;-66
2022/06/06 13:36:02;;;;;;;4.43;1.55;;;;;;;;;;5056488;28;20037;-66
2022/06/06 13:39:27;;;;;;;7.97;1.90;;;;;;;;;;5110681;27;20112;-66
2022/06/06 13:42:03;;;;;;;9.35;2.58;;;;;;;;;;5109727;28;20533;-65
2022/06/06 13:44:38;;;;;;;6.57;1.88;;;;;;;;;;5111028;28;20069;-65
2022/06/06 13:47:07;;;;;;;8.30;1.92;;;;;;;;;;5110709;28;20108;-65
2022/06/06 13:49:52;;;;;;;6.45;1.75;;;;;;;;;;5110910;28;20059;-65
2022/06/06 13:52:37;;;;;;;5.78;1.70;;;;;;;;;;5110888;28;20022;-66
2022/06/06 13:57:28;;;;;;;9.60;1.92;;;;;;;;;;5111274;27;20418;-65
2022/06/06 13:59:54;;;;;;;6.13;2.03;;;;;;;;;;5111111;28;20069;-65
2022/06/06 14:02:31;;;;;;;5.95;1.75;;;;;;;;;;5110609;28;20429;-65
2022/06/06 14:05:16;;;;;;;9.98;2.13;;;;;;;;;;5110999;28;20055;-65
2022/06/06 14:07:42;;;;;;;8.07;2.00;;;;;;;;;;5110608;28;20103;-67
2022/06/06 14:12:43;;;;;;;8.73;1.40;;;;;;;;;;5111202;27;20124;-64
2022/06/06 14:15:10;;;;;;;2.72;0.70;;;;;;;;;;5110804;28;20065;-66
2022/06/06 14:17:37;;;;;;;4.10;1.30;;;;;;;;;;5110955;28;20024;-65
2022/06/06 14:20:12;;;;;;;3.78;0.90;;;;;;;;;;5111012;28;20020;-66
2022/06/06 14:22:39;;;;;;;3.13;1.17;;;;;;;;;;5110794;28;20020;-66
2022/06/06 14:25:07;;;;;;;4.03;1.10;;;;;;;;;;5110916;28;20088;-66
2022/06/06 14:27:35;;;;;;;4.13;1.10;;;;;;;;;;5110822;28;20024;-66
2022/06/06 14:30:01;;;;;;;6.78;1.65;;;;;;;;;;5110394;28;20024;-65
2022/06/06 14:32:31;;;;;;;11.07;1.73;;;;;;;;;;5110777;28;20024;-65
2022/06/06 14:34:59;;;;;;;6.90;1.80;;;;;;;;;;5111004;28;20050;-65
2022/06/06 14:38:25;;;;;;;4.18;1.30;;;;;;;;;;5111391;27;20537;-67
2022/06/06 14:41:47;;;;;;;7.80;2.10;;;;;;;;;;5131589;27;20490;-65
2022/06/06 14:46:03;;;;;;;6.95;1.30;;;;;;;;;;5110996;27;20397;-65
2022/06/06 14:48:34;;;;;;;4.50;1.55;;;;;;;;;;5110973;28;20107;-65
2022/06/06 14:51:48;;;;;;;6.88;1.00;;;;;;;;;;5111318;27;20389;-68
2022/06/06 14:54:15;;;;;;;4.15;1.20;;;;;;;;;;5111052;28;20037;-66
2022/06/06 15:01:02;;;;;;;6.47;1.38;;;;;;;;;;5111179;27;20128;-66
2022/06/06 15:03:36;;;;;;;7.45;1.40;;;;;;;;;;5110793;28;20023;-68
2022/06/06 15:08:00;;;;;;;8.48;2.20;;;;;;;;;;5111311;27;20577;-66
2022/06/06 15:10:32;;;;;;;7.15;1.67;;;;;;;;;;5111014;28;20024;-65
2022/06/06 15:12:58;;;;;;;7.03;1.50;;;;;;;;;;5111088;28;20380;-66
2022/06/06 15:15:29;;;;;;;5.82;1.70;;;;;;;;;;5126752;28;20057;-66
2022/06/06 15:17:55;;;;;;;5.47;1.90;;;;;;;;;;5110591;28;20031;-66
2022/06/06 15:20:21;;;;;;;4.82;1.65;;;;;;;;;;5110915;28;20376;-66
2022/06/06 15:24:55;;;;;;;6.20;1.83;;;;;;;;;;5070304;28;20421;-66
2022/06/06 15:27:27;;;;;;;10.13;1.88;;;;;;;;;;5070326;28;20025;-66
2022/06/06 15:30:00;;;;;;;15.18;2.50;;;;;;;;;;5070464;28;20477;-65
2022/06/06 15:32:49;;;;;;;6.63;2.03;;;;;;;;;;5070082;28;20025;-66
2022/06/06 15:36:01;;;;;;;7.07;2.55;;;;;;;;;;5111035;27;20117;-67
2022/06/06 15:38:30;;;;;;;5.13;2.00;;;;;;;;;;5111162;28;20055;-67
2022/06/06 15:41:15;;;;;;;7.32;2.47;;;;;;;;;;5110653;28;20024;-67
2022/06/06 15:43:52;;;;;;;8.13;2.13;;;;;;;;;;5110995;28;20090;-67
2022/06/06 15:46:31;;;;;;;9.07;2.47;;;;;;;;;;5110573;28;20023;-67
2022/06/06 15:50:38;;;;;;;7.68;2.83;;;;;;;;;;5070761;28;20475;-68
2022/06/06 15:56:40;;;;;;;7.07;2.67;;;;;;;;;;5111459;27;20422;-67
2022/06/06 16:01:19;;;;;;;9.68;3.10;;;;;;;;;;5110982;27;20389;-66
2022/06/06 16:03:51;;;;;;;7.15;2.97;;;;;;;;;;5109822;28;20020;-66
2022/06/06 16:06:33;;;;;;;7.82;3.05;;;;;;;;;;5111198;27;20415;-68
2022/06/06 16:08:59;;;;;;;6.20;2.58;;;;;;;;;;5110683;28;20051;-66
2022/06/06 16:11:26;;;;;;;6.90;2.90;;;;;;;;;;5110960;28;20027;-66
2022/06/06 16:14:03;;;;;;;8.00;3.15;;;;;;;;;;5110562;28;20065;-65
2022/06/06 16:16:31;;;;;;;23.95;3.00;;;;;;;;;;5111376;28;20537;-67
2022/06/06 16:21:11;;;;;;;4.78;2.20;;;;;;;;;;5172959;27;20122;-67
2022/06/06 16:23:59;;;;;;;6.40;2.58;;;;;;;;;;5152395;27;20110;-67
2022/06/06 16:26:39;;;;;;;6.30;2.58;;;;;;;;;;5152143;27;20029;-68
2022/06/06 16:30:08;;;;;;;6.05;2.60;;;;;;;;;;5110880;27;20392;-67
2022/06/06 16:32:34;;;;;;;7.65;2.80;;;;;;;;;;5111188;28;20020;-66
2022/06/06 16:35:04;;;;;;;6.00;2.88;;;;;;;;;;5110601;28;20028;-66
2022/06/06 16:41:13;;;;;;;6.90;3.05;;;;;;;;;;5111215;27;20392;-68
2022/06/06 16:49:36;;;;;;;6.40;2.47;;;;;;;;;;5110701;28;20400;-65
2022/06/06 16:52:18;;;;;;;5.05;2.75;;;;;;;;;;5109666;28;20388;-65
2022/06/06 16:54:50;;;;;;;5.00;2.95;;;;;;;;;;5110844;28;20020;-65
2022/06/06 16:57:29;;;;;;;4.75;2.50;;;;;;;;;;5109237;28;20023;-68
2022/06/06 17:00:07;;;;;;;6.43;2.80;;;;;;;;;;5110813;28;20059;-67
2022/06/06 17:03:00;;;;;;;5.10;2.70;;;;;;;;;;5111179;27;20393;-65
2022/06/06 17:07:45;;;;;;;5.95;2.22;;;;;;;;;;5111166;28;20107;-65
2022/06/06 17:08:38;;;;;;;6.65;2.72;;;;;;;;;;5110904;28;20035;-67
2022/06/06 17:11:51;;;;;;;6.70;2.25;;;;;;;;;;5111112;27;20389;-65
2022/06/06 17:14:19;;;;;;;6.53;2.90;;;;;;;;;;5110969;28;20034;-67